< Typhoon 198607 1986 Season Typhoon 198609 >
Typhoon 198608 (ROGER)
General InformationTrack Information on Google MapsDetailed Wind InformationList of All Images || Disaster Info.ResourceGoogle EarthGE AnimationAtom FeedGeoJSON
Detalied Best Track (Time Zone = UTC)
Year Month Day Hour Lat. Long. Pressure (hPa) Wind (kt) Class Image Chart
1986 7 11 12 14.1 146.9 1006 0 2 Image Chart
1986 7 11 18 15.1 145.1 1006 0 2 Image Chart
1986 7 12 00 15.6 144.5 1006 0 2 Image Chart
1986 7 12 06 16.4 144.0 1006 0 2 Image Chart
1986 7 12 12 16.6 142.8 1004 0 2 Image Chart
1986 7 12 18 16.5 141.0 1000 35 3 Image Chart
1986 7 13 00 16.7 139.4 998 40 3 Image Chart
1986 7 13 06 17.6 138.2 994 40 3 Image Chart
1986 7 13 12 18.5 137.2 990 50 4 Image Chart
1986 7 13 18 19.6 136.4 985 50 4 Image Chart
1986 7 14 00 20.5 135.2 985 60 4 Image Chart
1986 7 14 06 21.3 134.0 985 60 4 Image Chart
1986 7 14 12 22.1 133.0 985 60 4 Image Chart
1986 7 14 18 23.0 132.0 975 60 4 Image Chart
1986 7 15 00 23.9 131.2 965 65 5 Image Chart
1986 7 15 06 24.6 130.5 960 65 5 Image Chart
1986 7 15 12 25.2 129.9 955 75 5 Image Chart
1986 7 15 18 25.7 129.4 960 75 5 Image Chart
1986 7 16 00 26.3 129.0 970 65 5 Image Chart
1986 7 16 06 27.2 128.9 980 60 4 Image Chart
1986 7 16 12 28.2 129.0 985 55 4 Image Chart
1986 7 16 18 29.2 129.5 985 50 4 Image Chart
1986 7 17 00 30.5 130.7 990 40 3 Image Chart
1986 7 17 06 31.9 132.4 990 45 3 Image Chart
1986 7 17 12 32.8 134.8 994 40 3 Image Chart
1986 7 17 18 33.5 137.6 994 40 3 Image Chart
1986 7 18 00 34.7 141.1 994 40 3 Image Chart
1986 7 18 06 34.5 145.0 994 40 3 Image Chart
1986 7 18 12 34.0 148.8 994 35 3 Image Chart
1986 7 18 18 34.0 152.5 1000 0 2 Image Chart
Japan Meteorological Agency Best Track Data | Correction Date : 1992-10-21
< Typhoon 198607 1986 Season Typhoon 198609 >

Help